sensor_id;sensor_type;location;lat;lon;timestamp;P1;durP1;ratioP1;P2;durP2;ratioP2
6292;SDS011;3179;54.350;10.102;2023-08-07T00:01:23;1.50;;;1.33;;
6292;SDS011;3179;54.350;10.102;2023-08-07T00:03:51;1.27;;;1.17;;
6292;SDS011;3179;54.350;10.102;2023-08-07T00:06:18;1.17;;;1.10;;
6292;SDS011;3179;54.350;10.102;2023-08-07T00:08:45;1.57;;;1.10;;
6292;SDS011;3179;54.350;10.102;2023-08-07T00:11:12;1.20;;;1.10;;
6292;SDS011;3179;54.350;10.102;2023-08-07T00:13:38;2.50;;;1.40;;
6292;SDS011;3179;54.350;10.102;2023-08-07T00:16:05;1.27;;;0.87;;
6292;SDS011;3179;54.350;10.102;2023-08-07T00:18:32;1.40;;;1.20;;
6292;SDS011;3179;54.350;10.102;2023-08-07T00:21:00;2.53;;;1.10;;
6292;SDS011;3179;54.350;10.102;2023-08-07T00:23:27;3.17;;;1.33;;
6292;SDS011;3179;54.350;10.102;2023-08-07T00:25:54;1.23;;;0.90;;
6292;SDS011;3179;54.350;10.102;2023-08-07T00:28:20;1.57;;;1.20;;
6292;SDS011;3179;54.350;10.102;2023-08-07T00:30:47;0.80;;;0.80;;
6292;SDS011;3179;54.350;10.102;2023-08-07T00:33:14;2.07;;;1.10;;
6292;SDS011;3179;54.350;10.102;2023-08-07T00:35:41;2.17;;;1.03;;
6292;SDS011;3179;54.350;10.102;2023-08-07T00:38:09;1.23;;;1.10;;
6292;SDS011;3179;54.350;10.102;2023-08-07T00:40:36;1.03;;;0.90;;
6292;SDS011;3179;54.350;10.102;2023-08-07T00:43:03;1.50;;;1.17;;
6292;SDS011;3179;54.350;10.102;2023-08-07T00:45:31;2.00;;;1.00;;
6292;SDS011;3179;54.350;10.102;2023-08-07T00:48:02;1.10;;;1.10;;
6292;SDS011;3179;54.350;10.102;2023-08-07T00:50:30;1.00;;;1.00;;
6292;SDS011;3179;54.350;10.102;2023-08-07T00:52:57;1.73;;;1.00;;
6292;SDS011;3179;54.350;10.102;2023-08-07T00:55:25;1.27;;;1.17;;
6292;SDS011;3179;54.350;10.102;2023-08-07T00:57:52;1.20;;;1.10;;
6292;SDS011;3179;54.350;10.102;2023-08-07T01:00:19;0.73;;;0.73;;
6292;SDS011;3179;54.350;10.102;2023-08-07T01:02:47;1.20;;;1.10;;
6292;SDS011;3179;54.350;10.102;2023-08-07T01:05:16;4.70;;;1.20;;
6292;SDS011;3179;54.350;10.102;2023-08-07T01:07:45;3.40;;;1.10;;
6292;SDS011;3179;54.350;10.102;2023-08-07T01:10:13;1.20;;;1.10;;
6292;SDS011;3179;54.350;10.102;2023-08-07T01:12:42;1.83;;;1.30;;
6292;SDS011;3179;54.350;10.102;2023-08-07T01:15:15;1.40;;;1.20;;
6292;SDS011;3179;54.350;10.102;2023-08-07T01:17:45;1.63;;;1.00;;
6292;SDS011;3179;54.350;10.102;2023-08-07T01:20:13;2.73;;;0.90;;
6292;SDS011;3179;54.350;10.102;2023-08-07T01:22:41;1.07;;;0.97;;
6292;SDS011;3179;54.350;10.102;2023-08-07T01:25:08;2.80;;;1.00;;
6292;SDS011;3179;54.350;10.102;2023-08-07T01:27:35;3.17;;;1.20;;
6292;SDS011;3179;54.350;10.102;2023-08-07T01:30:09;1.43;;;1.03;;
6292;SDS011;3179;54.350;10.102;2023-08-07T01:32:45;1.37;;;1.27;;
6292;SDS011;3179;54.350;10.102;2023-08-07T01:35:18;3.37;;;1.20;;
6292;SDS011;3179;54.350;10.102;2023-08-07T01:37:51;1.20;;;1.07;;
6292;SDS011;3179;54.350;10.102;2023-08-07T01:40:21;1.23;;;1.10;;
6292;SDS011;3179;54.350;10.102;2023-08-07T01:42:48;1.00;;;0.90;;
6292;SDS011;3179;54.350;10.102;2023-08-07T01:45:21;2.50;;;1.30;;
6292;SDS011;3179;54.350;10.102;2023-08-07T01:47:49;1.20;;;1.10;;
6292;SDS011;3179;54.350;10.102;2023-08-07T01:50:17;2.43;;;1.50;;
6292;SDS011;3179;54.350;10.102;2023-08-07T01:52:44;2.20;;;1.20;;
6292;SDS011;3179;54.350;10.102;2023-08-07T01:55:12;1.90;;;1.50;;
6292;SDS011;3179;54.350;10.102;2023-08-07T01:57:39;1.43;;;1.20;;
6292;SDS011;3179;54.350;10.102;2023-08-07T02:00:06;2.40;;;1.07;;
6292;SDS011;3179;54.350;10.102;2023-08-07T02:02:34;1.50;;;1.10;;
6292;SDS011;3179;54.350;10.102;2023-08-07T02:05:01;1.37;;;1.20;;
6292;SDS011;3179;54.350;10.102;2023-08-07T02:07:28;3.37;;;1.57;;
6292;SDS011;3179;54.350;10.102;2023-08-07T02:09:54;1.47;;;1.30;;
6292;SDS011;3179;54.350;10.102;2023-08-07T02:12:22;1.30;;;1.20;;
6292;SDS011;3179;54.350;10.102;2023-08-07T02:14:50;0.97;;;0.90;;
6292;SDS011;3179;54.350;10.102;2023-08-07T02:17:17;0.90;;;0.80;;
6292;SDS011;3179;54.350;10.102;2023-08-07T02:19:46;2.90;;;1.37;;
6292;SDS011;3179;54.350;10.102;2023-08-07T02:22:12;2.20;;;1.20;;
6292;SDS011;3179;54.350;10.102;2023-08-07T02:24:39;3.67;;;1.43;;
6292;SDS011;3179;54.350;10.102;2023-08-07T02:27:06;1.30;;;1.20;;
6292;SDS011;3179;54.350;10.102;2023-08-07T02:29:34;1.80;;;1.40;;
6292;SDS011;3179;54.350;10.102;2023-08-07T02:32:01;1.90;;;1.10;;
6292;SDS011;3179;54.350;10.102;2023-08-07T02:34:28;3.83;;;1.10;;
6292;SDS011;3179;54.350;10.102;2023-08-07T02:36:55;4.83;;;1.10;;
6292;SDS011;3179;54.350;10.102;2023-08-07T02:39:22;1.93;;;1.47;;
6292;SDS011;3179;54.350;10.102;2023-08-07T02:41:48;1.50;;;1.17;;
6292;SDS011;3179;54.350;10.102;2023-08-07T02:44:15;1.50;;;1.40;;
6292;SDS011;3179;54.350;10.102;2023-08-07T02:46:44;1.00;;;0.90;;
6292;SDS011;3179;54.350;10.102;2023-08-07T02:49:11;1.40;;;1.20;;
6292;SDS011;3179;54.350;10.102;2023-08-07T02:51:38;1.60;;;1.00;;
6292;SDS011;3179;54.350;10.102;2023-08-07T02:54:05;1.73;;;1.00;;
6292;SDS011;3179;54.350;10.102;2023-08-07T02:56:32;1.43;;;1.33;;
6292;SDS011;3179;54.350;10.102;2023-08-07T02:58:58;1.43;;;1.10;;
6292;SDS011;3179;54.350;10.102;2023-08-07T03:01:26;1.80;;;1.40;;
6292;SDS011;3179;54.350;10.102;2023-08-07T03:03:55;2.50;;;1.20;;
6292;SDS011;3179;54.350;10.102;2023-08-07T03:06:21;1.30;;;1.20;;
6292;SDS011;3179;54.350;10.102;2023-08-07T03:08:49;1.73;;;1.03;;
6292;SDS011;3179;54.350;10.102;2023-08-07T03:11:15;1.97;;;1.20;;
6292;SDS011;3179;54.350;10.102;2023-08-07T03:13:42;4.20;;;1.30;;
6292;SDS011;3179;54.350;10.102;2023-08-07T03:16:09;2.33;;;1.00;;
6292;SDS011;3179;54.350;10.102;2023-08-07T03:18:36;3.13;;;1.50;;
6292;SDS011;3179;54.350;10.102;2023-08-07T03:21:04;1.63;;;1.13;;
6292;SDS011;3179;54.350;10.102;2023-08-07T03:23:31;1.30;;;1.13;;
6292;SDS011;3179;54.350;10.102;2023-08-07T03:26:01;4.13;;;1.43;;
6292;SDS011;3179;54.350;10.102;2023-08-07T03:28:28;1.00;;;0.90;;
6292;SDS011;3179;54.350;10.102;2023-08-07T03:30:55;1.33;;;0.90;;
6292;SDS011;3179;54.350;10.102;2023-08-07T03:33:22;1.67;;;1.43;;
6292;SDS011;3179;54.350;10.102;2023-08-07T03:35:49;2.20;;;1.50;;
6292;SDS011;3179;54.350;10.102;2023-08-07T03:38:17;7.00;;;1.80;;
6292;SDS011;3179;54.350;10.102;2023-08-07T03:40:44;3.90;;;1.10;;
6292;SDS011;3179;54.350;10.102;2023-08-07T03:43:11;1.70;;;1.27;;
6292;SDS011;3179;54.350;10.102;2023-08-07T03:45:38;1.47;;;0.93;;
6292;SDS011;3179;54.350;10.102;2023-08-07T03:48:05;3.30;;;1.40;;
6292;SDS011;3179;54.350;10.102;2023-08-07T03:50:32;1.33;;;1.00;;
6292;SDS011;3179;54.350;10.102;2023-08-07T03:53:02;2.00;;;1.20;;
6292;SDS011;3179;54.350;10.102;2023-08-07T03:55:30;2.30;;;1.13;;
6292;SDS011;3179;54.350;10.102;2023-08-07T03:57:57;1.53;;;1.10;;
6292;SDS011;3179;54.350;10.102;2023-08-07T04:00:24;2.20;;;1.57;;
6292;SDS011;3179;54.350;10.102;2023-08-07T04:02:51;1.30;;;0.80;;
6292;SDS011;3179;54.350;10.102;2023-08-07T04:05:17;2.17;;;1.23;;
6292;SDS011;3179;54.350;10.102;2023-08-07T04:07:44;1.67;;;1.40;;
6292;SDS011;3179;54.350;10.102;2023-08-07T04:10:11;1.03;;;0.93;;
6292;SDS011;3179;54.350;10.102;2023-08-07T04:12:39;1.30;;;1.07;;
6292;SDS011;3179;54.350;10.102;2023-08-07T04:15:07;1.33;;;1.23;;
6292;SDS011;3179;54.350;10.102;2023-08-07T04:17:35;2.20;;;1.30;;
6292;SDS011;3179;54.350;10.102;2023-08-07T04:20:02;4.90;;;1.70;;
6292;SDS011;3179;54.350;10.102;2023-08-07T04:22:30;1.17;;;0.97;;
6292;SDS011;3179;54.350;10.102;2023-08-07T04:24:57;3.33;;;1.30;;
6292;SDS011;3179;54.350;10.102;2023-08-07T04:27:25;2.40;;;1.10;;
6292;SDS011;3179;54.350;10.102;2023-08-07T04:29:53;1.07;;;0.97;;
6292;SDS011;3179;54.350;10.102;2023-08-07T04:32:20;2.60;;;1.53;;
6292;SDS011;3179;54.350;10.102;2023-08-07T04:34:46;1.60;;;1.27;;
6292;SDS011;3179;54.350;10.102;2023-08-07T04:37:13;2.80;;;1.27;;
6292;SDS011;3179;54.350;10.102;2023-08-07T04:39:40;2.53;;;1.13;;
6292;SDS011;3179;54.350;10.102;2023-08-07T04:42:07;3.60;;;1.43;;
6292;SDS011;3179;54.350;10.102;2023-08-07T04:44:33;4.47;;;1.57;;
6292;SDS011;3179;54.350;10.102;2023-08-07T04:47:01;2.93;;;1.20;;
6292;SDS011;3179;54.350;10.102;2023-08-07T04:49:28;3.80;;;1.30;;
6292;SDS011;3179;54.350;10.102;2023-08-07T04:51:55;3.57;;;1.33;;
6292;SDS011;3179;54.350;10.102;2023-08-07T04:54:22;1.47;;;1.10;;
6292;SDS011;3179;54.350;10.102;2023-08-07T04:56:49;1.10;;;0.97;;
6292;SDS011;3179;54.350;10.102;2023-08-07T04:59:15;5.40;;;1.67;;
6292;SDS011;3179;54.350;10.102;2023-08-07T05:01:42;3.60;;;1.40;;
6292;SDS011;3179;54.350;10.102;2023-08-07T05:04:10;4.20;;;1.23;;
6292;SDS011;3179;54.350;10.102;2023-08-07T05:06:37;3.80;;;1.43;;
6292;SDS011;3179;54.350;10.102;2023-08-07T05:09:04;2.70;;;1.60;;
6292;SDS011;3179;54.350;10.102;2023-08-07T05:11:31;3.50;;;1.00;;
6292;SDS011;3179;54.350;10.102;2023-08-07T05:13:58;4.13;;;1.20;;
6292;SDS011;3179;54.350;10.102;2023-08-07T05:16:25;2.60;;;1.80;;
6292;SDS011;3179;54.350;10.102;2023-08-07T05:18:52;3.47;;;1.80;;
6292;SDS011;3179;54.350;10.102;2023-08-07T05:21:20;5.57;;;1.57;;
6292;SDS011;3179;54.350;10.102;2023-08-07T05:23:47;5.27;;;1.50;;
6292;SDS011;3179;54.350;10.102;2023-08-07T05:26:18;6.77;;;2.33;;
6292;SDS011;3179;54.350;10.102;2023-08-07T05:28:45;3.10;;;1.40;;
6292;SDS011;3179;54.350;10.102;2023-08-07T05:31:11;3.10;;;1.57;;
6292;SDS011;3179;54.350;10.102;2023-08-07T05:33:38;4.57;;;1.87;;
6292;SDS011;3179;54.350;10.102;2023-08-07T05:36:05;7.03;;;2.10;;
6292;SDS011;3179;54.350;10.102;2023-08-07T05:38:33;5.40;;;1.67;;
6292;SDS011;3179;54.350;10.102;2023-08-07T05:41:01;5.10;;;1.77;;
6292;SDS011;3179;54.350;10.102;2023-08-07T05:43:28;4.50;;;1.60;;
6292;SDS011;3179;54.350;10.102;2023-08-07T05:45:54;2.73;;;1.60;;
6292;SDS011;3179;54.350;10.102;2023-08-07T05:48:21;3.90;;;1.67;;
6292;SDS011;3179;54.350;10.102;2023-08-07T05:50:48;4.90;;;2.10;;
6292;SDS011;3179;54.350;10.102;2023-08-07T05:53:15;3.10;;;1.90;;
6292;SDS011;3179;54.350;10.102;2023-08-07T05:55:43;4.53;;;2.07;;
6292;SDS011;3179;54.350;10.102;2023-08-07T05:58:09;3.53;;;1.60;;
6292;SDS011;3179;54.350;10.102;2023-08-07T06:00:37;5.90;;;2.07;;
6292;SDS011;3179;54.350;10.102;2023-08-07T06:03:03;6.00;;;2.47;;
6292;SDS011;3179;54.350;10.102;2023-08-07T06:05:30;5.53;;;1.90;;
6292;SDS011;3179;54.350;10.102;2023-08-07T06:07:57;5.13;;;2.37;;
6292;SDS011;3179;54.350;10.102;2023-08-07T06:10:24;3.30;;;1.67;;
6292;SDS011;3179;54.350;10.102;2023-08-07T06:12:52;5.37;;;2.13;;
6292;SDS011;3179;54.350;10.102;2023-08-07T06:15:19;9.40;;;2.10;;
6292;SDS011;3179;54.350;10.102;2023-08-07T06:17:46;6.80;;;2.13;;
6292;SDS011;3179;54.350;10.102;2023-08-07T06:20:13;5.67;;;2.20;;
6292;SDS011;3179;54.350;10.102;2023-08-07T06:22:41;6.40;;;2.77;;
6292;SDS011;3179;54.350;10.102;2023-08-07T06:25:08;13.00;;;3.83;;
6292;SDS011;3179;54.350;10.102;2023-08-07T06:27:35;5.90;;;2.77;;
6292;SDS011;3179;54.350;10.102;2023-08-07T06:30:04;8.57;;;2.20;;
6292;SDS011;3179;54.350;10.102;2023-08-07T06:32:31;3.27;;;2.10;;
6292;SDS011;3179;54.350;10.102;2023-08-07T06:34:58;7.10;;;2.50;;
6292;SDS011;3179;54.350;10.102;2023-08-07T06:37:25;5.17;;;2.60;;
6292;SDS011;3179;54.350;10.102;2023-08-07T06:39:51;6.00;;;2.00;;
6292;SDS011;3179;54.350;10.102;2023-08-07T06:42:18;6.53;;;2.70;;
6292;SDS011;3179;54.350;10.102;2023-08-07T06:44:45;10.30;;;2.80;;
6292;SDS011;3179;54.350;10.102;2023-08-07T06:47:14;8.77;;;2.53;;
6292;SDS011;3179;54.350;10.102;2023-08-07T06:49:40;8.20;;;2.50;;
6292;SDS011;3179;54.350;10.102;2023-08-07T06:52:07;8.50;;;3.27;;
6292;SDS011;3179;54.350;10.102;2023-08-07T06:54:34;5.40;;;2.87;;
6292;SDS011;3179;54.350;10.102;2023-08-07T06:57:01;6.97;;;2.50;;
6292;SDS011;3179;54.350;10.102;2023-08-07T06:59:27;5.37;;;2.23;;
6292;SDS011;3179;54.350;10.102;2023-08-07T07:01:54;6.13;;;2.20;;
6292;SDS011;3179;54.350;10.102;2023-08-07T07:04:22;11.80;;;2.50;;
6292;SDS011;3179;54.350;10.102;2023-08-07T07:06:49;9.47;;;3.00;;
6292;SDS011;3179;54.350;10.102;2023-08-07T07:09:16;7.00;;;2.60;;
6292;SDS011;3179;54.350;10.102;2023-08-07T07:11:43;6.03;;;2.60;;
6292;SDS011;3179;54.350;10.102;2023-08-07T07:14:10;6.93;;;2.60;;
6292;SDS011;3179;54.350;10.102;2023-08-07T07:16:37;7.30;;;2.80;;
6292;SDS011;3179;54.350;10.102;2023-08-07T07:19:04;6.17;;;2.60;;
6292;SDS011;3179;54.350;10.102;2023-08-07T07:21:34;5.67;;;2.50;;
6292;SDS011;3179;54.350;10.102;2023-08-07T07:24:01;5.37;;;1.97;;
6292;SDS011;3179;54.350;10.102;2023-08-07T07:26:28;9.27;;;2.90;;
6292;SDS011;3179;54.350;10.102;2023-08-07T07:28:55;7.87;;;2.50;;
6292;SDS011;3179;54.350;10.102;2023-08-07T07:31:22;11.97;;;2.83;;
6292;SDS011;3179;54.350;10.102;2023-08-07T07:33:49;10.43;;;2.83;;
6292;SDS011;3179;54.350;10.102;2023-08-07T07:36:16;10.67;;;3.20;;
6292;SDS011;3179;54.350;10.102;2023-08-07T07:38:46;7.43;;;2.63;;
6292;SDS011;3179;54.350;10.102;2023-08-07T07:41:13;8.70;;;2.67;;
6292;SDS011;3179;54.350;10.102;2023-08-07T07:43:40;6.57;;;2.40;;
6292;SDS011;3179;54.350;10.102;2023-08-07T07:46:07;12.80;;;2.50;;
6292;SDS011;3179;54.350;10.102;2023-08-07T07:48:34;14.37;;;2.90;;
6292;SDS011;3179;54.350;10.102;2023-08-07T07:51:01;9.17;;;2.43;;
6292;SDS011;3179;54.350;10.102;2023-08-07T07:53:28;5.60;;;2.60;;
6292;SDS011;3179;54.350;10.102;2023-08-07T07:55:57;5.00;;;2.30;;
6292;SDS011;3179;54.350;10.102;2023-08-07T07:58:23;8.10;;;2.80;;
6292;SDS011;3179;54.350;10.102;2023-08-07T08:00:50;8.37;;;2.37;;
6292;SDS011;3179;54.350;10.102;2023-08-07T08:03:19;6.60;;;2.60;;
6292;SDS011;3179;54.350;10.102;2023-08-07T08:05:48;10.50;;;3.30;;
6292;SDS011;3179;54.350;10.102;2023-08-07T08:08:16;14.30;;;3.30;;
6292;SDS011;3179;54.350;10.102;2023-08-07T08:10:43;6.70;;;2.70;;
6292;SDS011;3179;54.350;10.102;2023-08-07T08:13:13;6.30;;;3.13;;
6292;SDS011;3179;54.350;10.102;2023-08-07T08:15:40;8.63;;;3.00;;
6292;SDS011;3179;54.350;10.102;2023-08-07T08:18:07;8.33;;;2.80;;
6292;SDS011;3179;54.350;10.102;2023-08-07T08:20:33;8.40;;;2.87;;
6292;SDS011;3179;54.350;10.102;2023-08-07T08:23:00;4.93;;;2.33;;
6292;SDS011;3179;54.350;10.102;2023-08-07T08:25:27;8.97;;;3.17;;
6292;SDS011;3179;54.350;10.102;2023-08-07T08:27:54;8.53;;;3.07;;
6292;SDS011;3179;54.350;10.102;2023-08-07T08:30:22;9.10;;;3.03;;
6292;SDS011;3179;54.350;10.102;2023-08-07T08:32:49;9.17;;;2.77;;
6292;SDS011;3179;54.350;10.102;2023-08-07T08:35:15;7.83;;;2.40;;
6292;SDS011;3179;54.350;10.102;2023-08-07T08:37:42;7.93;;;2.70;;
6292;SDS011;3179;54.350;10.102;2023-08-07T08:40:10;4.43;;;2.30;;
6292;SDS011;3179;54.350;10.102;2023-08-07T08:42:41;8.37;;;2.80;;
6292;SDS011;3179;54.350;10.102;2023-08-07T08:45:09;5.90;;;2.87;;
6292;SDS011;3179;54.350;10.102;2023-08-07T08:47:40;6.30;;;2.43;;
6292;SDS011;3179;54.350;10.102;2023-08-07T08:50:09;7.90;;;2.70;;
6292;SDS011;3179;54.350;10.102;2023-08-07T08:52:37;8.17;;;2.70;;
6292;SDS011;3179;54.350;10.102;2023-08-07T08:55:07;7.97;;;3.10;;
6292;SDS011;3179;54.350;10.102;2023-08-07T08:57:34;6.63;;;2.90;;
6292;SDS011;3179;54.350;10.102;2023-08-07T09:00:03;4.73;;;2.53;;
6292;SDS011;3179;54.350;10.102;2023-08-07T09:02:43;5.73;;;2.57;;
6292;SDS011;3179;54.350;10.102;2023-08-07T09:05:11;5.50;;;2.70;;
6292;SDS011;3179;54.350;10.102;2023-08-07T09:07:38;6.27;;;2.93;;
6292;SDS011;3179;54.350;10.102;2023-08-07T09:10:05;7.50;;;2.47;;
6292;SDS011;3179;54.350;10.102;2023-08-07T09:12:32;10.07;;;2.90;;
6292;SDS011;3179;54.350;10.102;2023-08-07T09:15:01;6.40;;;2.50;;
6292;SDS011;3179;54.350;10.102;2023-08-07T09:17:29;4.83;;;2.83;;
6292;SDS011;3179;54.350;10.102;2023-08-07T09:20:00;9.30;;;2.50;;
6292;SDS011;3179;54.350;10.102;2023-08-07T09:22:29;9.03;;;2.83;;
6292;SDS011;3179;54.350;10.102;2023-08-07T09:24:56;8.43;;;3.17;;
6292;SDS011;3179;54.350;10.102;2023-08-07T09:27:25;8.67;;;2.90;;
6292;SDS011;3179;54.350;10.102;2023-08-07T09:29:53;9.00;;;2.67;;
6292;SDS011;3179;54.350;10.102;2023-08-07T09:32:21;8.00;;;2.73;;
6292;SDS011;3179;54.350;10.102;2023-08-07T09:34:49;10.47;;;3.37;;
6292;SDS011;3179;54.350;10.102;2023-08-07T09:37:17;6.77;;;2.50;;
6292;SDS011;3179;54.350;10.102;2023-08-07T09:39:44;9.70;;;2.93;;
6292;SDS011;3179;54.350;10.102;2023-08-07T09:42:13;6.53;;;2.90;;
6292;SDS011;3179;54.350;10.102;2023-08-07T09:44:41;7.10;;;2.60;;
6292;SDS011;3179;54.350;10.102;2023-08-07T09:47:11;8.27;;;3.07;;
6292;SDS011;3179;54.350;10.102;2023-08-07T09:49:39;11.40;;;3.50;;
6292;SDS011;3179;54.350;10.102;2023-08-07T09:52:06;8.00;;;2.50;;
6292;SDS011;3179;54.350;10.102;2023-08-07T09:54:35;9.60;;;2.70;;
6292;SDS011;3179;54.350;10.102;2023-08-07T09:57:02;15.50;;;3.10;;
6292;SDS011;3179;54.350;10.102;2023-08-07T09:59:31;11.13;;;3.20;;
6292;SDS011;3179;54.350;10.102;2023-08-07T10:01:58;7.93;;;2.67;;
6292;SDS011;3179;54.350;10.102;2023-08-07T10:04:27;11.10;;;2.37;;
6292;SDS011;3179;54.350;10.102;2023-08-07T10:06:54;7.60;;;3.10;;
6292;SDS011;3179;54.350;10.102;2023-08-07T10:09:21;6.33;;;2.50;;
6292;SDS011;3179;54.350;10.102;2023-08-07T10:11:50;9.20;;;2.90;;
6292;SDS011;3179;54.350;10.102;2023-08-07T10:14:17;8.40;;;3.43;;
6292;SDS011;3179;54.350;10.102;2023-08-07T10:16:45;7.67;;;2.77;;
6292;SDS011;3179;54.350;10.102;2023-08-07T10:19:12;7.90;;;2.77;;
6292;SDS011;3179;54.350;10.102;2023-08-07T10:21:39;7.63;;;3.57;;
6292;SDS011;3179;54.350;10.102;2023-08-07T10:24:07;5.00;;;2.30;;
6292;SDS011;3179;54.350;10.102;2023-08-07T10:26:36;6.00;;;2.27;;
6292;SDS011;3179;54.350;10.102;2023-08-07T10:29:11;11.37;;;3.50;;
6292;SDS011;3179;54.350;10.102;2023-08-07T10:31:40;10.93;;;2.80;;
6292;SDS011;3179;54.350;10.102;2023-08-07T10:34:08;6.83;;;2.90;;
6292;SDS011;3179;54.350;10.102;2023-08-07T10:36:35;6.07;;;2.50;;
6292;SDS011;3179;54.350;10.102;2023-08-07T10:39:06;3.90;;;1.93;;
6292;SDS011;3179;54.350;10.102;2023-08-07T10:41:37;3.40;;;1.80;;
6292;SDS011;3179;54.350;10.102;2023-08-07T10:44:05;10.37;;;2.87;;
6292;SDS011;3179;54.350;10.102;2023-08-07T10:46:46;8.60;;;3.03;;
6292;SDS011;3179;54.350;10.102;2023-08-07T10:49:29;7.23;;;1.73;;
6292;SDS011;3179;54.350;10.102;2023-08-07T10:51:57;5.27;;;2.10;;
6292;SDS011;3179;54.350;10.102;2023-08-07T10:54:24;8.33;;;2.60;;
6292;SDS011;3179;54.350;10.102;2023-08-07T10:56:52;7.53;;;1.90;;
6292;SDS011;3179;54.350;10.102;2023-08-07T10:59:20;7.20;;;2.40;;
6292;SDS011;3179;54.350;10.102;2023-08-07T11:01:51;4.67;;;1.97;;
6292;SDS011;3179;54.350;10.102;2023-08-07T11:04:21;9.97;;;2.53;;
6292;SDS011;3179;54.350;10.102;2023-08-07T11:06:52;4.27;;;2.00;;
6292;SDS011;3179;54.350;10.102;2023-08-07T11:09:19;9.03;;;2.27;;
6292;SDS011;3179;54.350;10.102;2023-08-07T11:11:46;8.23;;;2.30;;
6292;SDS011;3179;54.350;10.102;2023-08-07T11:14:14;6.03;;;2.23;;
6292;SDS011;3179;54.350;10.102;2023-08-07T11:16:42;6.83;;;2.20;;
6292;SDS011;3179;54.350;10.102;2023-08-07T11:19:12;6.10;;;2.13;;
6292;SDS011;3179;54.350;10.102;2023-08-07T11:21:40;4.63;;;2.10;;
6292;SDS011;3179;54.350;10.102;2023-08-07T11:24:08;5.50;;;2.00;;
6292;SDS011;3179;54.350;10.102;2023-08-07T11:26:41;12.50;;;2.57;;
6292;SDS011;3179;54.350;10.102;2023-08-07T11:29:08;6.50;;;1.80;;
6292;SDS011;3179;54.350;10.102;2023-08-07T11:31:35;7.67;;;2.23;;
6292;SDS011;3179;54.350;10.102;2023-08-07T11:34:02;7.13;;;2.10;;
6292;SDS011;3179;54.350;10.102;2023-08-07T11:36:30;7.33;;;2.37;;
6292;SDS011;3179;54.350;10.102;2023-08-07T11:38:58;2.60;;;1.80;;
6292;SDS011;3179;54.350;10.102;2023-08-07T11:41:25;4.87;;;1.70;;
6292;SDS011;3179;54.350;10.102;2023-08-07T11:43:52;4.70;;;1.90;;
6292;SDS011;3179;54.350;10.102;2023-08-07T11:46:19;13.67;;;2.27;;
6292;SDS011;3179;54.350;10.102;2023-08-07T11:48:47;8.27;;;2.50;;
6292;SDS011;3179;54.350;10.102;2023-08-07T11:51:13;9.20;;;2.50;;
6292;SDS011;3179;54.350;10.102;2023-08-07T11:53:42;5.17;;;2.10;;
6292;SDS011;3179;54.350;10.102;2023-08-07T11:56:09;5.73;;;2.27;;
6292;SDS011;3179;54.350;10.102;2023-08-07T11:58:39;11.90;;;3.00;;
6292;SDS011;3179;54.350;10.102;2023-08-07T12:01:09;7.13;;;2.30;;
6292;SDS011;3179;54.350;10.102;2023-08-07T12:03:38;7.37;;;2.80;;
6292;SDS011;3179;54.350;10.102;2023-08-07T12:06:06;5.17;;;2.00;;
6292;SDS011;3179;54.350;10.102;2023-08-07T12:08:34;7.27;;;2.00;;
6292;SDS011;3179;54.350;10.102;2023-08-07T12:11:04;7.07;;;2.47;;
6292;SDS011;3179;54.350;10.102;2023-08-07T12:13:32;8.70;;;2.47;;
6292;SDS011;3179;54.350;10.102;2023-08-07T12:16:00;5.17;;;2.60;;
6292;SDS011;3179;54.350;10.102;2023-08-07T12:18:29;7.90;;;2.33;;
6292;SDS011;3179;54.350;10.102;2023-08-07T12:20:56;6.03;;;2.20;;
6292;SDS011;3179;54.350;10.102;2023-08-07T12:23:24;6.63;;;2.23;;
6292;SDS011;3179;54.350;10.102;2023-08-07T12:25:51;5.00;;;2.20;;
6292;SDS011;3179;54.350;10.102;2023-08-07T12:28:20;5.80;;;2.07;;
6292;SDS011;3179;54.350;10.102;2023-08-07T12:30:47;8.20;;;2.63;;
6292;SDS011;3179;54.350;10.102;2023-08-07T12:33:14;6.43;;;2.20;;
6292;SDS011;3179;54.350;10.102;2023-08-07T12:35:41;4.17;;;2.50;;
6292;SDS011;3179;54.350;10.102;2023-08-07T12:38:08;5.03;;;2.50;;
6292;SDS011;3179;54.350;10.102;2023-08-07T12:40:35;5.80;;;1.90;;
6292;SDS011;3179;54.350;10.102;2023-08-07T12:43:02;10.43;;;2.70;;
6292;SDS011;3179;54.350;10.102;2023-08-07T12:45:31;7.40;;;2.90;;
6292;SDS011;3179;54.350;10.102;2023-08-07T12:47:59;8.63;;;2.90;;
6292;SDS011;3179;54.350;10.102;2023-08-07T12:50:26;5.20;;;2.00;;
6292;SDS011;3179;54.350;10.102;2023-08-07T12:52:53;7.53;;;2.17;;
6292;SDS011;3179;54.350;10.102;2023-08-07T12:55:20;5.97;;;2.07;;
6292;SDS011;3179;54.350;10.102;2023-08-07T12:57:47;4.73;;;2.00;;
6292;SDS011;3179;54.350;10.102;2023-08-07T13:00:14;5.27;;;1.97;;
6292;SDS011;3179;54.350;10.102;2023-08-07T13:02:45;6.80;;;2.63;;
6292;SDS011;3179;54.350;10.102;2023-08-07T13:05:12;5.10;;;2.07;;
6292;SDS011;3179;54.350;10.102;2023-08-07T13:07:41;6.70;;;2.87;;
6292;SDS011;3179;54.350;10.102;2023-08-07T13:10:08;3.40;;;1.80;;
6292;SDS011;3179;54.350;10.102;2023-08-07T13:12:37;7.03;;;2.10;;
6292;SDS011;3179;54.350;10.102;2023-08-07T13:15:05;5.80;;;2.13;;
6292;SDS011;3179;54.350;10.102;2023-08-07T13:17:33;6.00;;;2.33;;
6292;SDS011;3179;54.350;10.102;2023-08-07T13:20:02;7.50;;;2.63;;
6292;SDS011;3179;54.350;10.102;2023-08-07T13:22:33;5.37;;;2.10;;
6292;SDS011;3179;54.350;10.102;2023-08-07T13:25:00;3.80;;;2.03;;
6292;SDS011;3179;54.350;10.102;2023-08-07T13:27:28;7.67;;;2.70;;
6292;SDS011;3179;54.350;10.102;2023-08-07T13:29:55;6.17;;;2.73;;
6292;SDS011;3179;54.350;10.102;2023-08-07T13:32:22;6.07;;;1.93;;
6292;SDS011;3179;54.350;10.102;2023-08-07T13:34:50;5.60;;;2.53;;
6292;SDS011;3179;54.350;10.102;2023-08-07T13:37:18;5.53;;;2.30;;
6292;SDS011;3179;54.350;10.102;2023-08-07T13:39:45;5.50;;;2.17;;
6292;SDS011;3179;54.350;10.102;2023-08-07T13:42:14;5.97;;;2.60;;
6292;SDS011;3179;54.350;10.102;2023-08-07T13:44:41;7.37;;;2.70;;
6292;SDS011;3179;54.350;10.102;2023-08-07T13:47:09;8.10;;;2.60;;
6292;SDS011;3179;54.350;10.102;2023-08-07T13:49:36;8.00;;;2.77;;
6292;SDS011;3179;54.350;10.102;2023-08-07T13:52:04;9.70;;;3.00;;
6292;SDS011;3179;54.350;10.102;2023-08-07T13:54:32;7.17;;;2.90;;
6292;SDS011;3179;54.350;10.102;2023-08-07T13:56:59;6.50;;;2.50;;
6292;SDS011;3179;54.350;10.102;2023-08-07T13:59:26;6.60;;;2.03;;
6292;SDS011;3179;54.350;10.102;2023-08-07T14:01:53;8.63;;;2.40;;
6292;SDS011;3179;54.350;10.102;2023-08-07T14:04:21;7.57;;;2.10;;
6292;SDS011;3179;54.350;10.102;2023-08-07T14:06:48;10.00;;;2.03;;
6292;SDS011;3179;54.350;10.102;2023-08-07T14:09:14;6.50;;;2.20;;
6292;SDS011;3179;54.350;10.102;2023-08-07T14:11:44;6.77;;;1.93;;
6292;SDS011;3179;54.350;10.102;2023-08-07T14:14:11;5.47;;;2.23;;
6292;SDS011;3179;54.350;10.102;2023-08-07T14:16:38;5.97;;;2.30;;
6292;SDS011;3179;54.350;10.102;2023-08-07T14:19:05;5.03;;;2.07;;
6292;SDS011;3179;54.350;10.102;2023-08-07T14:21:32;4.67;;;2.23;;
6292;SDS011;3179;54.350;10.102;2023-08-07T14:23:59;5.50;;;2.23;;
6292;SDS011;3179;54.350;10.102;2023-08-07T14:26:26;8.17;;;2.50;;
6292;SDS011;3179;54.350;10.102;2023-08-07T14:28:54;7.80;;;2.30;;
6292;SDS011;3179;54.350;10.102;2023-08-07T14:31:21;7.67;;;2.27;;
6292;SDS011;3179;54.350;10.102;2023-08-07T14:33:49;5.03;;;2.23;;
6292;SDS011;3179;54.350;10.102;2023-08-07T14:36:16;4.33;;;1.70;;
6292;SDS011;3179;54.350;10.102;2023-08-07T14:38:43;4.33;;;2.10;;
6292;SDS011;3179;54.350;10.102;2023-08-07T14:41:10;6.07;;;2.30;;
6292;SDS011;3179;54.350;10.102;2023-08-07T14:43:37;10.47;;;2.97;;
6292;SDS011;3179;54.350;10.102;2023-08-07T14:46:06;4.23;;;1.90;;
6292;SDS011;3179;54.350;10.102;2023-08-07T14:48:33;13.13;;;2.63;;
6292;SDS011;3179;54.350;10.102;2023-08-07T14:50:59;5.63;;;2.23;;
6292;SDS011;3179;54.350;10.102;2023-08-07T14:53:26;7.90;;;2.63;;
6292;SDS011;3179;54.350;10.102;2023-08-07T14:55:53;6.93;;;2.60;;
6292;SDS011;3179;54.350;10.102;2023-08-07T14:58:20;6.80;;;2.70;;
6292;SDS011;3179;54.350;10.102;2023-08-07T15:00:46;4.53;;;2.40;;
6292;SDS011;3179;54.350;10.102;2023-08-07T15:03:16;11.40;;;2.90;;